sensor_id;sensor_type;location;lat;lon;timestamp;temperature;humidity
25250;DHT22;13201;51.148;13.738;2023-03-14T00:02:00;11.90;99.90
25250;DHT22;13201;51.148;13.738;2023-03-14T00:04:26;11.80;99.90
25250;DHT22;13201;51.148;13.738;2023-03-14T00:06:52;11.80;99.90
25250;DHT22;13201;51.148;13.738;2023-03-14T00:09:17;11.90;99.90
25250;DHT22;13201;51.148;13.738;2023-03-14T00:11:43;11.90;99.90
25250;DHT22;13201;51.148;13.738;2023-03-14T00:14:09;11.90;99.90
25250;DHT22;13201;51.148;13.738;2023-03-14T00:16:35;11.90;99.90
25250;DHT22;13201;51.148;13.738;2023-03-14T00:19:01;11.80;99.90
25250;DHT22;13201;51.148;13.738;2023-03-14T00:21:27;11.80;99.90
25250;DHT22;13201;51.148;13.738;2023-03-14T00:23:53;11.90;99.90
25250;DHT22;13201;51.148;13.738;2023-03-14T00:26:20;11.90;99.90
25250;DHT22;13201;51.148;13.738;2023-03-14T00:28:47;11.90;99.90
25250;DHT22;13201;51.148;13.738;2023-03-14T00:31:15;11.80;99.90
25250;DHT22;13201;51.148;13.738;2023-03-14T00:33:41;11.80;99.90
25250;DHT22;13201;51.148;13.738;2023-03-14T00:36:13;11.80;99.90
25250;DHT22;13201;51.148;13.738;2023-03-14T00:38:40;11.70;99.90
25250;DHT22;13201;51.148;13.738;2023-03-14T00:41:09;11.70;99.90
25250;DHT22;13201;51.148;13.738;2023-03-14T00:43:35;11.80;99.90
25250;DHT22;13201;51.148;13.738;2023-03-14T00:46:01;11.80;99.90
25250;DHT22;13201;51.148;13.738;2023-03-14T00:48:27;11.70;99.90
25250;DHT22;13201;51.148;13.738;2023-03-14T00:50:52;11.70;99.90
25250;DHT22;13201;51.148;13.738;2023-03-14T00:53:18;11.70;99.90
25250;DHT22;13201;51.148;13.738;2023-03-14T00:55:44;11.70;99.90
25250;DHT22;13201;51.148;13.738;2023-03-14T00:58:11;11.60;99.90
25250;DHT22;13201;51.148;13.738;2023-03-14T01:00:38;11.70;99.90
25250;DHT22;13201;51.148;13.738;2023-03-14T01:03:04;11.60;99.90
25250;DHT22;13201;51.148;13.738;2023-03-14T01:30:54;10.80;99.90
25250;DHT22;13201;51.148;13.738;2023-03-14T01:33:20;10.70;99.90
25250;DHT22;13201;51.148;13.738;2023-03-14T01:35:46;10.80;99.90
25250;DHT22;13201;51.148;13.738;2023-03-14T01:38:14;10.90;99.90
25250;DHT22;13201;51.148;13.738;2023-03-14T01:40:44;11.00;99.90
25250;DHT22;13201;51.148;13.738;2023-03-14T01:43:16;11.10;99.90
25250;DHT22;13201;51.148;13.738;2023-03-14T01:48:37;11.30;99.90
25250;DHT22;13201;51.148;13.738;2023-03-14T01:51:06;11.30;99.90
25250;DHT22;13201;51.148;13.738;2023-03-14T01:53:35;11.40;99.90
25250;DHT22;13201;51.148;13.738;2023-03-14T01:56:01;11.40;99.90
25250;DHT22;13201;51.148;13.738;2023-03-14T01:58:30;11.40;99.90
25250;DHT22;13201;51.148;13.738;2023-03-14T02:00:58;11.40;99.90
25250;DHT22;13201;51.148;13.738;2023-03-14T02:03:25;11.40;99.90
25250;DHT22;13201;51.148;13.738;2023-03-14T02:05:54;11.40;99.90
25250;DHT22;13201;51.148;13.738;2023-03-14T02:08:21;11.40;99.90
25250;DHT22;13201;51.148;13.738;2023-03-14T02:10:48;11.40;99.90
25250;DHT22;13201;51.148;13.738;2023-03-14T02:13:16;11.40;99.90
25250;DHT22;13201;51.148;13.738;2023-03-14T02:15:44;11.40;99.90
25250;DHT22;13201;51.148;13.738;2023-03-14T02:18:10;11.40;99.90
25250;DHT22;13201;51.148;13.738;2023-03-14T02:23:30;11.50;99.90
25250;DHT22;13201;51.148;13.738;2023-03-14T02:26:05;11.50;99.90
25250;DHT22;13201;51.148;13.738;2023-03-14T02:28:34;11.40;99.90
25250;DHT22;13201;51.148;13.738;2023-03-14T02:31:00;11.50;99.90
25250;DHT22;13201;51.148;13.738;2023-03-14T02:33:26;11.60;99.90
25250;DHT22;13201;51.148;13.738;2023-03-14T02:36:02;11.60;99.90
25250;DHT22;13201;51.148;13.738;2023-03-14T02:39:08;11.60;99.90
25250;DHT22;13201;51.148;13.738;2023-03-14T02:41:36;11.60;99.90
25250;DHT22;13201;51.148;13.738;2023-03-14T02:44:02;11.60;99.90
25250;DHT22;13201;51.148;13.738;2023-03-14T02:46:28;11.60;99.90
25250;DHT22;13201;51.148;13.738;2023-03-14T02:51:23;11.60;99.90
25250;DHT22;13201;51.148;13.738;2023-03-14T02:53:49;11.60;99.90
25250;DHT22;13201;51.148;13.738;2023-03-14T02:56:15;11.60;99.90
25250;DHT22;13201;51.148;13.738;2023-03-14T02:58:40;11.60;99.90
25250;DHT22;13201;51.148;13.738;2023-03-14T03:01:06;11.70;99.90
25250;DHT22;13201;51.148;13.738;2023-03-14T03:03:32;11.80;99.90
25250;DHT22;13201;51.148;13.738;2023-03-14T03:05:58;11.80;99.90
25250;DHT22;13201;51.148;13.738;2023-03-14T03:08:25;12.00;99.90
25250;DHT22;13201;51.148;13.738;2023-03-14T03:10:52;12.00;99.90
25250;DHT22;13201;51.148;13.738;2023-03-14T03:13:18;12.00;99.90
25250;DHT22;13201;51.148;13.738;2023-03-14T03:15:45;12.00;99.90
25250;DHT22;13201;51.148;13.738;2023-03-14T03:18:11;12.00;99.90
25250;DHT22;13201;51.148;13.738;2023-03-14T03:20:37;12.00;99.90
25250;DHT22;13201;51.148;13.738;2023-03-14T03:23:02;11.90;99.90
25250;DHT22;13201;51.148;13.738;2023-03-14T03:25:28;11.90;99.90
25250;DHT22;13201;51.148;13.738;2023-03-14T03:27:54;11.90;99.90
25250;DHT22;13201;51.148;13.738;2023-03-14T03:30:20;11.90;99.90
25250;DHT22;13201;51.148;13.738;2023-03-14T03:32:46;11.90;99.90
25250;DHT22;13201;51.148;13.738;2023-03-14T03:35:12;11.90;99.90
25250;DHT22;13201;51.148;13.738;2023-03-14T03:37:38;11.80;99.90
25250;DHT22;13201;51.148;13.738;2023-03-14T03:40:04;11.90;99.90
25250;DHT22;13201;51.148;13.738;2023-03-14T03:42:32;11.80;99.90
25250;DHT22;13201;51.148;13.738;2023-03-14T03:44:59;11.70;99.90
25250;DHT22;13201;51.148;13.738;2023-03-14T03:47:25;11.70;99.90
25250;DHT22;13201;51.148;13.738;2023-03-14T03:49:50;11.80;99.90
25250;DHT22;13201;51.148;13.738;2023-03-14T03:52:17;11.70;99.90
25250;DHT22;13201;51.148;13.738;2023-03-14T03:54:42;11.70;99.90
25250;DHT22;13201;51.148;13.738;2023-03-14T03:57:08;11.70;99.90
25250;DHT22;13201;51.148;13.738;2023-03-14T03:59:34;11.60;99.90
25250;DHT22;13201;51.148;13.738;2023-03-14T04:01:59;11.60;99.90
25250;DHT22;13201;51.148;13.738;2023-03-14T04:04:25;11.60;99.90
25250;DHT22;13201;51.148;13.738;2023-03-14T04:06:51;11.80;99.90
25250;DHT22;13201;51.148;13.738;2023-03-14T04:09:16;11.80;99.90
25250;DHT22;13201;51.148;13.738;2023-03-14T04:11:42;11.60;99.90
25250;DHT22;13201;51.148;13.738;2023-03-14T04:14:08;11.70;99.90
25250;DHT22;13201;51.148;13.738;2023-03-14T04:16:34;11.70;99.90
25250;DHT22;13201;51.148;13.738;2023-03-14T04:19:03;11.70;99.90
25250;DHT22;13201;51.148;13.738;2023-03-14T04:21:29;11.70;99.90
25250;DHT22;13201;51.148;13.738;2023-03-14T04:23:54;11.70;99.90
25250;DHT22;13201;51.148;13.738;2023-03-14T04:26:20;11.70;99.90
25250;DHT22;13201;51.148;13.738;2023-03-14T04:28:46;11.80;99.90
25250;DHT22;13201;51.148;13.738;2023-03-14T04:31:15;11.80;99.90
25250;DHT22;13201;51.148;13.738;2023-03-14T04:33:41;11.80;99.90
25250;DHT22;13201;51.148;13.738;2023-03-14T04:36:08;11.80;99.90
25250;DHT22;13201;51.148;13.738;2023-03-14T04:38:34;11.80;99.90
25250;DHT22;13201;51.148;13.738;2023-03-14T04:41:00;11.70;99.90
25250;DHT22;13201;51.148;13.738;2023-03-14T04:43:27;11.70;99.90
25250;DHT22;13201;51.148;13.738;2023-03-14T04:45:57;11.70;99.90
25250;DHT22;13201;51.148;13.738;2023-03-14T04:48:23;11.60;99.90
25250;DHT22;13201;51.148;13.738;2023-03-14T04:50:49;11.60;99.90
25250;DHT22;13201;51.148;13.738;2023-03-14T04:53:16;11.60;99.90
25250;DHT22;13201;51.148;13.738;2023-03-14T04:55:42;11.70;99.90
25250;DHT22;13201;51.148;13.738;2023-03-14T04:58:08;11.70;99.90
25250;DHT22;13201;51.148;13.738;2023-03-14T05:00:34;11.70;99.90
25250;DHT22;13201;51.148;13.738;2023-03-14T05:02:59;11.60;99.90
25250;DHT22;13201;51.148;13.738;2023-03-14T05:05:25;11.60;99.90
25250;DHT22;13201;51.148;13.738;2023-03-14T05:07:51;11.60;99.90
25250;DHT22;13201;51.148;13.738;2023-03-14T05:10:17;11.60;99.90
25250;DHT22;13201;51.148;13.738;2023-03-14T05:12:42;11.60;99.90
25250;DHT22;13201;51.148;13.738;2023-03-14T05:15:08;11.50;99.90
25250;DHT22;13201;51.148;13.738;2023-03-14T05:17:34;11.50;99.90
25250;DHT22;13201;51.148;13.738;2023-03-14T05:20:00;11.50;99.90
25250;DHT22;13201;51.148;13.738;2023-03-14T05:22:26;11.50;99.90
25250;DHT22;13201;51.148;13.738;2023-03-14T05:24:52;11.40;99.90
25250;DHT22;13201;51.148;13.738;2023-03-14T05:27:22;11.40;99.90
25250;DHT22;13201;51.148;13.738;2023-03-14T05:29:47;11.30;99.90
25250;DHT22;13201;51.148;13.738;2023-03-14T05:32:13;11.40;99.90
25250;DHT22;13201;51.148;13.738;2023-03-14T05:34:39;11.40;99.90
25250;DHT22;13201;51.148;13.738;2023-03-14T05:37:04;11.40;99.90
25250;DHT22;13201;51.148;13.738;2023-03-14T05:39:30;11.40;99.90
25250;DHT22;13201;51.148;13.738;2023-03-14T05:41:56;11.30;99.90
25250;DHT22;13201;51.148;13.738;2023-03-14T05:44:21;11.40;99.90
25250;DHT22;13201;51.148;13.738;2023-03-14T05:46:47;11.40;99.90
25250;DHT22;13201;51.148;13.738;2023-03-14T05:49:13;11.40;99.90
25250;DHT22;13201;51.148;13.738;2023-03-14T05:51:39;11.40;99.90
25250;DHT22;13201;51.148;13.738;2023-03-14T05:54:04;11.40;99.90
25250;DHT22;13201;51.148;13.738;2023-03-14T05:56:30;11.40;99.90
25250;DHT22;13201;51.148;13.738;2023-03-14T05:58:56;11.50;99.90
25250;DHT22;13201;51.148;13.738;2023-03-14T06:01:21;11.50;99.90
25250;DHT22;13201;51.148;13.738;2023-03-14T06:03:47;11.50;99.90
25250;DHT22;13201;51.148;13.738;2023-03-14T06:06:13;11.40;99.90
25250;DHT22;13201;51.148;13.738;2023-03-14T06:08:38;11.50;99.90
25250;DHT22;13201;51.148;13.738;2023-03-14T06:11:04;11.50;99.90
25250;DHT22;13201;51.148;13.738;2023-03-14T06:13:30;11.50;99.90
25250;DHT22;13201;51.148;13.738;2023-03-14T06:15:56;11.50;99.90
25250;DHT22;13201;51.148;13.738;2023-03-14T06:18:22;11.40;99.90
25250;DHT22;13201;51.148;13.738;2023-03-14T06:20:47;11.40;99.90
25250;DHT22;13201;51.148;13.738;2023-03-14T06:23:13;11.50;99.90
25250;DHT22;13201;51.148;13.738;2023-03-14T06:25:39;11.50;99.90
25250;DHT22;13201;51.148;13.738;2023-03-14T06:28:05;11.50;99.90
25250;DHT22;13201;51.148;13.738;2023-03-14T06:30:30;11.50;99.90
25250;DHT22;13201;51.148;13.738;2023-03-14T06:32:56;11.60;99.90
25250;DHT22;13201;51.148;13.738;2023-03-14T06:35:22;11.60;99.90
25250;DHT22;13201;51.148;13.738;2023-03-14T06:37:48;11.70;99.90
25250;DHT22;13201;51.148;13.738;2023-03-14T06:40:14;11.70;99.90
25250;DHT22;13201;51.148;13.738;2023-03-14T06:42:46;11.70;99.90
25250;DHT22;13201;51.148;13.738;2023-03-14T06:45:12;11.80;99.90
25250;DHT22;13201;51.148;13.738;2023-03-14T06:47:38;11.80;99.90
25250;DHT22;13201;51.148;13.738;2023-03-14T06:50:05;11.80;99.90
25250;DHT22;13201;51.148;13.738;2023-03-14T06:52:31;11.90;99.90
25250;DHT22;13201;51.148;13.738;2023-03-14T06:54:57;11.90;99.90
25250;DHT22;13201;51.148;13.738;2023-03-14T06:57:23;11.90;99.90
25250;DHT22;13201;51.148;13.738;2023-03-14T06:59:48;11.90;99.90
25250;DHT22;13201;51.148;13.738;2023-03-14T07:02:14;11.90;99.90
25250;DHT22;13201;51.148;13.738;2023-03-14T07:04:40;11.90;99.90
25250;DHT22;13201;51.148;13.738;2023-03-14T07:07:07;11.90;99.90
25250;DHT22;13201;51.148;13.738;2023-03-14T07:09:34;12.00;99.90
25250;DHT22;13201;51.148;13.738;2023-03-14T07:12:00;12.00;99.90
25250;DHT22;13201;51.148;13.738;2023-03-14T07:14:26;11.90;99.90
25250;DHT22;13201;51.148;13.738;2023-03-14T07:16:51;11.90;99.90
25250;DHT22;13201;51.148;13.738;2023-03-14T07:19:17;11.90;99.90
25250;DHT22;13201;51.148;13.738;2023-03-14T07:21:43;11.90;99.90
25250;DHT22;13201;51.148;13.738;2023-03-14T07:24:09;12.00;99.90
25250;DHT22;13201;51.148;13.738;2023-03-14T07:26:35;12.00;99.90
25250;DHT22;13201;51.148;13.738;2023-03-14T07:29:00;12.10;99.90
25250;DHT22;13201;51.148;13.738;2023-03-14T07:31:29;12.10;99.90
25250;DHT22;13201;51.148;13.738;2023-03-14T07:33:55;12.10;99.90
25250;DHT22;13201;51.148;13.738;2023-03-14T07:36:21;12.20;99.90
25250;DHT22;13201;51.148;13.738;2023-03-14T07:38:47;12.20;99.90
25250;DHT22;13201;51.148;13.738;2023-03-14T07:41:12;12.20;99.90
25250;DHT22;13201;51.148;13.738;2023-03-14T07:43:39;12.20;99.90
25250;DHT22;13201;51.148;13.738;2023-03-14T07:46:05;12.20;99.90
25250;DHT22;13201;51.148;13.738;2023-03-14T07:48:31;12.20;99.90
25250;DHT22;13201;51.148;13.738;2023-03-14T07:50:57;12.20;99.90
25250;DHT22;13201;51.148;13.738;2023-03-14T07:53:24;12.20;99.90
25250;DHT22;13201;51.148;13.738;2023-03-14T07:55:53;12.20;99.90
25250;DHT22;13201;51.148;13.738;2023-03-14T07:58:20;12.20;99.90
25250;DHT22;13201;51.148;13.738;2023-03-14T08:00:50;12.20;99.90
25250;DHT22;13201;51.148;13.738;2023-03-14T08:03:16;12.30;99.90
25250;DHT22;13201;51.148;13.738;2023-03-14T08:05:42;12.40;99.90
25250;DHT22;13201;51.148;13.738;2023-03-14T08:08:08;12.40;99.90
25250;DHT22;13201;51.148;13.738;2023-03-14T08:10:34;12.40;99.90
25250;DHT22;13201;51.148;13.738;2023-03-14T08:13:00;12.50;99.90
25250;DHT22;13201;51.148;13.738;2023-03-14T08:15:28;12.50;99.90
25250;DHT22;13201;51.148;13.738;2023-03-14T08:17:54;12.60;99.90
25250;DHT22;13201;51.148;13.738;2023-03-14T08:20:22;12.70;99.90
25250;DHT22;13201;51.148;13.738;2023-03-14T08:22:48;12.70;99.90
25250;DHT22;13201;51.148;13.738;2023-03-14T08:25:14;12.70;99.90
25250;DHT22;13201;51.148;13.738;2023-03-14T08:27:40;12.80;99.90
25250;DHT22;13201;51.148;13.738;2023-03-14T08:30:09;12.90;99.90
25250;DHT22;13201;51.148;13.738;2023-03-14T08:32:36;12.90;99.90
25250;DHT22;13201;51.148;13.738;2023-03-14T08:35:01;12.90;99.90
25250;DHT22;13201;51.148;13.738;2023-03-14T08:37:27;13.00;99.90
25250;DHT22;13201;51.148;13.738;2023-03-14T08:39:53;13.00;99.90
25250;DHT22;13201;51.148;13.738;2023-03-14T08:42:19;13.00;99.90
25250;DHT22;13201;51.148;13.738;2023-03-14T08:44:45;13.10;99.90
25250;DHT22;13201;51.148;13.738;2023-03-14T08:47:11;13.10;99.90
25250;DHT22;13201;51.148;13.738;2023-03-14T08:49:36;13.00;99.90
25250;DHT22;13201;51.148;13.738;2023-03-14T08:52:03;13.00;99.90
25250;DHT22;13201;51.148;13.738;2023-03-14T08:54:30;13.00;99.90
25250;DHT22;13201;51.148;13.738;2023-03-14T08:56:56;13.00;99.90
25250;DHT22;13201;51.148;13.738;2023-03-14T08:59:22;13.00;99.90
25250;DHT22;13201;51.148;13.738;2023-03-14T09:01:48;13.10;99.90
25250;DHT22;13201;51.148;13.738;2023-03-14T09:04:14;13.00;99.90
25250;DHT22;13201;51.148;13.738;2023-03-14T09:06:40;13.00;99.90
25250;DHT22;13201;51.148;13.738;2023-03-14T09:09:06;13.20;99.90
25250;DHT22;13201;51.148;13.738;2023-03-14T09:11:32;13.30;99.90
25250;DHT22;13201;51.148;13.738;2023-03-14T09:13:57;13.30;99.90
25250;DHT22;13201;51.148;13.738;2023-03-14T09:16:23;13.20;99.90
25250;DHT22;13201;51.148;13.738;2023-03-14T09:18:49;13.20;99.90
25250;DHT22;13201;51.148;13.738;2023-03-14T09:21:15;13.30;99.90
25250;DHT22;13201;51.148;13.738;2023-03-14T09:23:41;13.30;99.90
25250;DHT22;13201;51.148;13.738;2023-03-14T09:26:07;13.40;99.90
25250;DHT22;13201;51.148;13.738;2023-03-14T09:28:33;13.40;99.90
25250;DHT22;13201;51.148;13.738;2023-03-14T09:31:09;13.40;99.90
25250;DHT22;13201;51.148;13.738;2023-03-14T09:33:35;13.40;99.90
25250;DHT22;13201;51.148;13.738;2023-03-14T09:36:01;13.30;99.90
25250;DHT22;13201;51.148;13.738;2023-03-14T09:38:27;13.40;99.90
25250;DHT22;13201;51.148;13.738;2023-03-14T09:40:53;13.40;99.90
25250;DHT22;13201;51.148;13.738;2023-03-14T09:43:21;13.50;99.90
25250;DHT22;13201;51.148;13.738;2023-03-14T09:45:48;13.40;99.90
25250;DHT22;13201;51.148;13.738;2023-03-14T09:48:19;13.50;99.90
25250;DHT22;13201;51.148;13.738;2023-03-14T09:50:49;13.40;99.90
25250;DHT22;13201;51.148;13.738;2023-03-14T09:53:20;13.40;99.90
25250;DHT22;13201;51.148;13.738;2023-03-14T09:55:49;13.50;99.90
25250;DHT22;13201;51.148;13.738;2023-03-14T09:58:20;13.50;99.90
25250;DHT22;13201;51.148;13.738;2023-03-14T10:00:46;13.40;99.90
25250;DHT22;13201;51.148;13.738;2023-03-14T10:05:38;13.30;99.90
25250;DHT22;13201;51.148;13.738;2023-03-14T10:08:05;13.20;99.90
25250;DHT22;13201;51.148;13.738;2023-03-14T10:10:31;13.10;99.90
25250;DHT22;13201;51.148;13.738;2023-03-14T10:13:18;13.10;99.90
25250;DHT22;13201;51.148;13.738;2023-03-14T10:15:53;13.00;99.90
25250;DHT22;13201;51.148;13.738;2023-03-14T10:18:20;13.00;99.90
25250;DHT22;13201;51.148;13.738;2023-03-14T10:20:48;12.90;99.90
25250;DHT22;13201;51.148;13.738;2023-03-14T10:25:43;13.10;99.90
25250;DHT22;13201;51.148;13.738;2023-03-14T10:28:49;13.10;99.90
25250;DHT22;13201;51.148;13.738;2023-03-14T10:31:17;13.10;99.90
25250;DHT22;13201;51.148;13.738;2023-03-14T10:34:01;13.00;99.90
25250;DHT22;13201;51.148;13.738;2023-03-14T10:36:29;13.10;99.90
25250;DHT22;13201;51.148;13.738;2023-03-14T10:39:32;13.10;99.90
25250;DHT22;13201;51.148;13.738;2023-03-14T10:42:06;13.20;99.90
25250;DHT22;13201;51.148;13.738;2023-03-14T10:44:38;13.30;99.90
25250;DHT22;13201;51.148;13.738;2023-03-14T10:47:05;13.30;99.90
25250;DHT22;13201;51.148;13.738;2023-03-14T10:49:34;13.20;99.90
25250;DHT22;13201;51.148;13.738;2023-03-14T10:52:22;13.20;99.90
25250;DHT22;13201;51.148;13.738;2023-03-14T10:55:03;13.20;99.90
25250;DHT22;13201;51.148;13.738;2023-03-14T10:57:29;13.20;99.90
25250;DHT22;13201;51.148;13.738;2023-03-14T10:59:56;13.00;99.90
25250;DHT22;13201;51.148;13.738;2023-03-14T11:07:44;13.10;99.90
25250;DHT22;13201;51.148;13.738;2023-03-14T11:10:36;13.10;99.90
25250;DHT22;13201;51.148;13.738;2023-03-14T11:13:44;13.20;99.90
25250;DHT22;13201;51.148;13.738;2023-03-14T11:16:26;13.20;99.90
25250;DHT22;13201;51.148;13.738;2023-03-14T11:19:29;13.30;99.90
25250;DHT22;13201;51.148;13.738;2023-03-14T11:32:45;13.60;99.90
25250;DHT22;13201;51.148;13.738;2023-03-14T11:35:20;13.70;99.90
25250;DHT22;13201;51.148;13.738;2023-03-14T11:37:55;13.70;99.90
25250;DHT22;13201;51.148;13.738;2023-03-14T11:40:27;13.80;99.90
25250;DHT22;13201;51.148;13.738;2023-03-14T11:43:04;13.80;99.90
25250;DHT22;13201;51.148;13.738;2023-03-14T11:45:38;13.80;99.90
25250;DHT22;13201;51.148;13.738;2023-03-14T11:50:33;13.90;99.90
25250;DHT22;13201;51.148;13.738;2023-03-14T11:55:35;13.90;99.90
25250;DHT22;13201;51.148;13.738;2023-03-14T11:58:15;14.00;99.90
25250;DHT22;13201;51.148;13.738;2023-03-14T12:00:43;14.00;99.90
25250;DHT22;13201;51.148;13.738;2023-03-14T12:06:19;14.10;99.90
25250;DHT22;13201;51.148;13.738;2023-03-14T12:08:50;14.10;99.90
25250;DHT22;13201;51.148;13.738;2023-03-14T12:13:59;14.30;99.90
25250;DHT22;13201;51.148;13.738;2023-03-14T12:18:52;14.40;99.90
25250;DHT22;13201;51.148;13.738;2023-03-14T12:21:17;14.50;99.90
25250;DHT22;13201;51.148;13.738;2023-03-14T12:23:54;14.70;99.90
25250;DHT22;13201;51.148;13.738;2023-03-14T12:26:25;14.70;99.90
25250;DHT22;13201;51.148;13.738;2023-03-14T12:42:11;14.40;99.90
25250;DHT22;13201;51.148;13.738;2023-03-14T12:49:51;14.50;99.90
25250;DHT22;13201;51.148;13.738;2023-03-14T12:55:27;15.10;99.90
25250;DHT22;13201;51.148;13.738;2023-03-14T12:58:12;15.00;99.90
25250;DHT22;13201;51.148;13.738;2023-03-14T13:00:41;14.60;99.90
25250;DHT22;13201;51.148;13.738;2023-03-14T13:03:20;15.00;99.90
25250;DHT22;13201;51.148;13.738;2023-03-14T13:06:01;15.60;99.90
25250;DHT22;13201;51.148;13.738;2023-03-14T13:08:44;15.30;99.90
25250;DHT22;13201;51.148;13.738;2023-03-14T13:11:19;15.20;99.90
25250;DHT22;13201;51.148;13.738;2023-03-14T13:13:56;15.20;99.90
25250;DHT22;13201;51.148;13.738;2023-03-14T13:16:23;15.50;99.90
25250;DHT22;13201;51.148;13.738;2023-03-14T13:18:50;15.70;99.90
25250;DHT22;13201;51.148;13.738;2023-03-14T13:21:27;15.90;99.90
25250;DHT22;13201;51.148;13.738;2023-03-14T13:24:02;15.10;99.90
25250;DHT22;13201;51.148;13.738;2023-03-14T13:26:36;15.20;99.90
25250;DHT22;13201;51.148;13.738;2023-03-14T13:29:29;15.10;99.90
25250;DHT22;13201;51.148;13.738;2023-03-14T13:32:10;15.50;99.90
25250;DHT22;13201;51.148;13.738;2023-03-14T13:34:38;16.00;99.90
25250;DHT22;13201;51.148;13.738;2023-03-14T13:37:04;15.90;99.90
25250;DHT22;13201;51.148;13.738;2023-03-14T13:39:29;15.50;99.90
25250;DHT22;13201;51.148;13.738;2023-03-14T13:42:00;15.30;99.90
25250;DHT22;13201;51.148;13.738;2023-03-14T13:44:36;15.20;99.90
25250;DHT22;13201;51.148;13.738;2023-03-14T13:47:04;15.10;99.90
25250;DHT22;13201;51.148;13.738;2023-03-14T13:49:32;15.10;99.90
25250;DHT22;13201;51.148;13.738;2023-03-14T13:52:01;15.30;99.90
25250;DHT22;13201;51.148;13.738;2023-03-14T13:54:27;15.50;99.90
25250;DHT22;13201;51.148;13.738;2023-03-14T13:57:05;15.70;99.90
25250;DHT22;13201;51.148;13.738;2023-03-14T13:59:33;15.40;99.90
25250;DHT22;13201;51.148;13.738;2023-03-14T14:02:03;15.30;99.90
25250;DHT22;13201;51.148;13.738;2023-03-14T14:04:32;15.30;99.90
25250;DHT22;13201;51.148;13.738;2023-03-14T14:06:59;15.10;99.90
25250;DHT22;13201;51.148;13.738;2023-03-14T14:09:29;15.20;99.90
25250;DHT22;13201;51.148;13.738;2023-03-14T14:14:38;14.70;99.90
25250;DHT22;13201;51.148;13.738;2023-03-14T14:17:11;14.50;99.90
25250;DHT22;13201;51.148;13.738;2023-03-14T14:19:39;14.70;99.90
25250;DHT22;13201;51.148;13.738;2023-03-14T14:22:05;15.50;99.90
25250;DHT22;13201;51.148;13.738;2023-03-14T14:24:34;16.50;99.90
25250;DHT22;13201;51.148;13.738;2023-03-14T14:27:17;16.70;99.90
25250;DHT22;13201;51.148;13.738;2023-03-14T14:29:44;17.10;99.90
25250;DHT22;13201;51.148;13.738;2023-03-14T14:32:21;17.20;99.90
25250;DHT22;13201;51.148;13.738;2023-03-14T14:34:57;17.50;99.90
25250;DHT22;13201;51.148;13.738;2023-03-14T14:37:32;17.10;99.90
25250;DHT22;13201;51.148;13.738;2023-03-14T14:40:21;16.30;99.90
25250;DHT22;13201;51.148;13.738;2023-03-14T14:42:48;16.80;99.90
25250;DHT22;13201;51.148;13.738;2023-03-14T14:45:23;16.80;99.90
25250;DHT22;13201;51.148;13.738;2023-03-14T14:47:50;16.10;99.90
25250;DHT22;13201;51.148;13.738;2023-03-14T14:50:38;16.20;99.90
25250;DHT22;13201;51.148;13.738;2023-03-14T14:55:54;16.80;99.90
25250;DHT22;13201;51.148;13.738;2023-03-14T14:58:27;17.00;99.90
25250;DHT22;13201;51.148;13.738;2023-03-14T15:00:57;17.20;99.90
25250;DHT22;13201;51.148;13.738;2023-03-14T15:03:27;16.90;99.90
25250;DHT22;13201;51.148;13.738;2023-03-14T15:05:54;17.30;99.90
25250;DHT22;13201;51.148;13.738;2023-03-14T15:08:21;16.90;99.90
25250;DHT22;13201;51.148;13.738;2023-03-14T15:10:46;16.60;99.90
25250;DHT22;13201;51.148;13.738;2023-03-14T15:13:12;16.40;99.90
25250;DHT22;13201;51.148;13.738;2023-03-14T15:15:38;16.60;99.90
25250;DHT22;13201;51.148;13.738;2023-03-14T15:18:15;16.90;99.90
25250;DHT22;13201;51.148;13.738;2023-03-14T15:20:42;16.40;99.90
25250;DHT22;13201;51.148;13.738;2023-03-14T15:23:10;16.40;99.90
25250;DHT22;13201;51.148;13.738;2023-03-14T15:25:36;16.20;99.90
25250;DHT22;13201;51.148;13.738;2023-03-14T15:28:16;15.80;99.90
25250;DHT22;13201;51.148;13.738;2023-03-14T15:30:42;15.60;99.90
25250;DHT22;13201;51.148;13.738;2023-03-14T15:33:08;15.40;99.90
25250;DHT22;13201;51.148;13.738;2023-03-14T15:35:36;14.90;99.90
25250;DHT22;13201;51.148;13.738;2023-03-14T15:38:02;15.00;99.90
25250;DHT22;13201;51.148;13.738;2023-03-14T15:40:28;15.10;99.90
25250;DHT22;13201;51.148;13.738;2023-03-14T15:42:54;15.10;99.90
25250;DHT22;13201;51.148;13.738;2023-03-14T15:45:20;14.90;99.90
25250;DHT22;13201;51.148;13.738;2023-03-14T15:47:45;14.80;99.90
25250;DHT22;13201;51.148;13.738;2023-03-14T15:50:11;14.90;99.90
25250;DHT22;13201;51.148;13.738;2023-03-14T15:52:37;14.70;99.90
25250;DHT22;13201;51.148;13.738;2023-03-14T15:55:03;14.60;99.90
25250;DHT22;13201;51.148;13.738;2023-03-14T15:57:28;14.60;99.90
25250;DHT22;13201;51.148;13.738;2023-03-14T15:59:54;14.30;99.90
25250;DHT22;13201;51.148;13.738;2023-03-14T16:02:20;14.20;99.90
25250;DHT22;13201;51.148;13.738;2023-03-14T16:04:45;14.10;99.90
25250;DHT22;13201;51.148;13.738;2023-03-14T16:07:11;14.10;99.90
25250;DHT22;13201;51.148;13.738;2023-03-14T16:09:37;13.90;99.90
25250;DHT22;13201;51.148;13.738;2023-03-14T16:12:03;13.80;99.90
25250;DHT22;13201;51.148;13.738;2023-03-14T16:14:30;13.60;99.90
25250;DHT22;13201;51.148;13.738;2023-03-14T16:16:56;13.60;99.90
25250;DHT22;13201;51.148;13.738;2023-03-14T16:19:25;13.50;99.90
25250;DHT22;13201;51.148;13.738;2023-03-14T16:21:56;13.40;99.90
25250;DHT22;13201;51.148;13.738;2023-03-14T16:24:22;13.50;99.90
25250;DHT22;13201;51.148;13.738;2023-03-14T16:26:47;13.40;99.90
25250;DHT22;13201;51.148;13.738;2023-03-14T16:29:13;13.20;99.90
25250;DHT22;13201;51.148;13.738;2023-03-14T16:31:39;13.10;99.90
25250;DHT22;13201;51.148;13.738;2023-03-14T16:34:10;12.70;99.90
25250;DHT22;13201;51.148;13.738;2023-03-14T16:36:36;12.50;99.90
25250;DHT22;13201;51.148;13.738;2023-03-14T16:39:02;12.30;99.90
25250;DHT22;13201;51.148;13.738;2023-03-14T16:41:28;12.10;99.90
25250;DHT22;13201;51.148;13.738;2023-03-14T16:43:57;10.30;99.90
25250;DHT22;13201;51.148;13.738;2023-03-14T16:46:23;9.30;99.90
25250;DHT22;13201;51.148;13.738;2023-03-14T16:48:50;9.10;99.90
25250;DHT22;13201;51.148;13.738;2023-03-14T16:51:16;8.90;99.90
25250;DHT22;13201;51.148;13.738;2023-03-14T16:53:42;8.50;99.90
25250;DHT22;13201;51.148;13.738;2023-03-14T16:56:08;8.50;99.90
25250;DHT22;13201;51.148;13.738;2023-03-14T16:58:35;8.20;99.90
25250;DHT22;13201;51.148;13.738;2023-03-14T17:01:09;8.20;99.90